createdAt,value
2018-04-22T00:00:47.181Z,24.4
2018-04-22T00:01:37.223Z,24.4
2018-04-22T00:02:26.999Z,24.4
2018-04-22T00:03:17.629Z,24.4
2018-04-22T00:04:07.710Z,24.4
2018-04-22T00:04:57.932Z,24.4
2018-04-22T00:05:47.803Z,24.4
2018-04-22T00:06:37.303Z,24.4
2018-04-22T00:07:27.476Z,24.3
2018-04-22T00:08:18.026Z,24.3
2018-04-22T00:09:07.529Z,24.3
2018-04-22T00:09:58.149Z,24.3
2018-04-22T00:10:47.917Z,24.3
2018-04-22T00:11:37.700Z,24.3
2018-04-22T00:12:28.082Z,24.3
2018-04-22T00:13:17.569Z,24.3
2018-04-22T00:14:08.424Z,24.3
2018-04-22T00:14:58.532Z,24.3
2018-04-22T00:15:48.104Z,24.3
2018-04-22T00:16:38.379Z,24.3
2018-04-22T00:17:28.161Z,24.3
2018-04-22T00:18:18.208Z,24.3
2018-04-22T00:19:08.824Z,24.3
2018-04-22T00:19:58.878Z,24.2
2018-04-22T00:20:48.389Z,24.2
2018-04-22T00:21:38.745Z,24.2
2018-04-22T00:22:28.809Z,24.2
2018-04-22T00:23:18.828Z,24.2
2018-04-22T00:24:08.911Z,24.2
2018-04-22T00:24:59.282Z,24.2
2018-04-22T00:25:48.775Z,24.2
2018-04-22T00:26:39.120Z,24.2
2018-04-22T00:27:29.470Z,24.2
2018-04-22T00:28:19.549Z,24.1
2018-04-22T00:29:09.324Z,24.1
2018-04-22T00:29:59.414Z,24.1
2018-04-22T00:30:49.769Z,24.1
2018-04-22T00:31:38.950Z,24.1
2018-04-22T00:32:29.881Z,24.1
2018-04-22T00:33:19.627Z,24.1
2018-04-22T00:34:09.425Z,24.1
2018-04-22T00:34:59.281Z,24.1
2018-04-22T00:35:49.556Z,24.1
2018-04-22T00:36:40.165Z,24.1
2018-04-22T00:37:29.695Z,24.1
2018-04-22T00:38:20.017Z,24.1
2018-04-22T00:39:10.337Z,24.1
2018-04-22T00:40:00.133Z,24.1
2018-04-22T00:40:50.230Z,24.1
2018-04-22T00:41:39.978Z,24.1
2018-04-22T00:42:29.783Z,24.1
2018-04-22T00:43:20.410Z,24.1
2018-04-22T00:44:10.455Z,24.1
2018-04-22T00:45:00.829Z,24.1
2018-04-22T00:45:50.633Z,24.1
2018-04-22T00:46:40.911Z,24.1
2018-04-22T00:47:29.861Z,24.1
2018-04-22T00:48:21.048Z,24.1
2018-04-22T00:49:11.104Z,24.1
2018-04-22T00:50:00.892Z,24.1
2018-04-22T00:50:50.953Z,24.1
2018-04-22T00:51:41.304Z,24.1
2018-04-22T00:52:30.853Z,24
2018-04-22T00:53:21.402Z,24.1
2018-04-22T00:54:11.198Z,24.1
2018-04-22T00:55:01.268Z,24
2018-04-22T00:55:51.397Z,24
2018-04-22T00:56:41.684Z,24
2018-04-22T00:57:31.482Z,24
2018-04-22T00:58:21.550Z,24
2018-04-22T00:59:11.322Z,24
2018-04-22T01:00:01.424Z,24
2018-04-22T01:00:51.988Z,24
2018-04-22T01:01:41.530Z,24
2018-04-22T01:02:31.844Z,24
2018-04-22T01:03:22.224Z,24
2018-04-22T01:04:12.033Z,24
2018-04-22T01:05:01.793Z,24
2018-04-22T01:05:51.840Z,24
2018-04-22T01:06:42.218Z,24
2018-04-22T01:07:31.948Z,24
2018-04-22T01:08:22.291Z,24
2018-04-22T01:09:12.107Z,24
2018-04-22T01:10:02.717Z,24
2018-04-22T01:10:52.525Z,24
2018-04-22T01:11:42.821Z,23.9
2018-04-22T01:12:32.625Z,23.9
2018-04-22T01:13:22.918Z,24
2018-04-22T01:14:12.778Z,23.9
2018-04-22T01:15:02.609Z,23.9
2018-04-22T01:15:52.121Z,23.9
2018-04-22T01:16:42.733Z,23.9
2018-04-22T01:17:32.446Z,23.9
2018-04-22T01:18:22.842Z,23.9
2018-04-22T01:19:12.620Z,23.9
2018-04-22T01:20:02.426Z,23.9
2018-04-22T01:20:53.049Z,23.9
2018-04-22T01:21:43.131Z,23.9
2018-04-22T01:22:33.666Z,23.9
2018-04-22T01:23:23.443Z,23.9
2018-04-22T01:24:13.042Z,23.9
2018-04-22T01:25:03.331Z,23.9
2018-04-22T01:25:53.635Z,23.9
2018-04-22T01:26:43.456Z,23.9
2018-04-22T01:27:33.232Z,23.9
2018-04-22T01:28:23.835Z,23.9
2018-04-22T01:29:13.618Z,23.9
2018-04-22T01:30:03.947Z,23.9
2018-04-22T01:30:54.266Z,23.9
2018-04-22T01:31:44.335Z,23.9
2018-04-22T01:32:33.570Z,23.9
2018-04-22T01:33:23.681Z,23.9
2018-04-22T01:34:14.536Z,23.9
2018-04-22T01:35:04.601Z,23.9
2018-04-22T01:35:54.687Z,23.9
2018-04-22T01:36:44.199Z,23.9
2018-04-22T01:37:33.937Z,23.9
2018-04-22T01:38:24.568Z,23.9
2018-04-22T01:39:14.706Z,23.9
2018-04-22T01:40:05.031Z,23.9
2018-04-22T01:40:54.777Z,23.9
2018-04-22T01:41:44.850Z,23.9
2018-04-22T01:42:34.054Z,23.9
2018-04-22T01:43:24.692Z,23.9
2018-04-22T01:44:14.751Z,23.9
2018-04-22T01:45:05.144Z,23.9
2018-04-22T01:45:55.395Z,23.9
2018-04-22T01:46:45.196Z,23.9
2018-04-22T01:47:35.559Z,23.9
2018-04-22T01:48:25.340Z,23.9
2018-04-22T01:49:15.698Z,23.9
2018-04-22T01:50:05.476Z,23.9
2018-04-22T01:50:55.808Z,23.9
2018-04-22T01:51:45.600Z,23.9
2018-04-22T01:52:35.373Z,23.9
2018-04-22T01:53:25.720Z,23.9
2018-04-22T01:54:15.791Z,23.9
2018-04-22T01:55:05.593Z,23.9
2018-04-22T01:55:55.641Z,23.9
2018-04-22T01:56:45.977Z,23.9
2018-04-22T01:57:36.334Z,23.9
2018-04-22T01:58:26.133Z,23.9
2018-04-22T01:59:15.612Z,23.9
2018-04-22T02:00:06.286Z,23.9
2018-04-22T02:00:55.790Z,23.9
2018-04-22T02:01:46.091Z,23.9
2018-04-22T02:02:36.427Z,23.9
2018-04-22T02:03:26.490Z,23.9
2018-04-22T02:04:16.574Z,23.9
2018-04-22T02:05:06.928Z,23.9
2018-04-22T02:05:56.157Z,23.9
2018-04-22T02:06:46.749Z,23.9
2018-04-22T02:07:37.114Z,23.9
2018-04-22T02:08:26.677Z,23.9
2018-04-22T02:09:16.956Z,23.9
2018-04-22T02:10:06.727Z,23.9
2018-04-22T02:10:57.366Z,23.9
2018-04-22T02:11:46.900Z,23.9
2018-04-22T02:12:36.144Z,23.9
2018-04-22T02:13:26.198Z,23.9
2018-04-22T02:14:17.122Z,23.9
2018-04-22T02:15:07.720Z,23.9
2018-04-22T02:15:57.167Z,23.9
2018-04-22T02:16:47.479Z,23.9
2018-04-22T02:17:37.857Z,23.9
2018-04-22T02:18:27.924Z,23.9
2018-04-22T02:19:17.956Z,23.9
2018-04-22T02:20:07.768Z,23.9
2018-04-22T02:20:58.071Z,23.9
2018-04-22T02:21:47.322Z,23.9
2018-04-22T02:22:37.950Z,23.9
2018-04-22T02:23:28.254Z,23.9
2018-04-22T02:24:18.075Z,23.9
2018-04-22T02:25:07.836Z,23.8
2018-04-22T02:25:58.500Z,23.9
2018-04-22T02:26:48.348Z,23.9
2018-04-22T02:27:38.349Z,23.9
2018-04-22T02:28:27.828Z,23.9
2018-04-22T02:29:18.449Z,23.9
2018-04-22T02:30:08.259Z,23.8
2018-04-22T02:30:58.891Z,23.9
2018-04-22T02:31:48.376Z,23.9
2018-04-22T02:32:39.054Z,23.9
2018-04-22T02:33:29.047Z,23.9
2018-04-22T02:34:18.864Z,23.9
2018-04-22T02:35:09.212Z,23.8
2018-04-22T02:35:59.281Z,23.9
2018-04-22T02:36:49.010Z,23.9
2018-04-22T02:37:38.844Z,23.8
2018-04-22T02:38:29.489Z,23.9
2018-04-22T02:39:19.508Z,23.9
2018-04-22T02:40:09.259Z,23.9
2018-04-22T02:40:59.071Z,23.9
2018-04-22T02:41:49.150Z,23.9
2018-04-22T02:42:39.764Z,23.9
2018-04-22T02:43:29.320Z,23.9
2018-04-22T02:44:19.325Z,23.8
2018-04-22T02:45:09.374Z,23.8
2018-04-22T02:45:59.480Z,23.9
2018-04-22T02:46:49.823Z,23.9
2018-04-22T02:47:39.569Z,23.9
2018-04-22T02:48:29.361Z,23.8
2018-04-22T02:49:20.243Z,23.8
2018-04-22T02:50:09.483Z,23.8
2018-04-22T02:51:00.141Z,23.8
2018-04-22T02:51:50.195Z,23.9
2018-04-22T02:52:39.951Z,23.9
2018-04-22T02:53:29.476Z,23.8
2018-04-22T02:54:20.368Z,23.8
2018-04-22T02:55:10.446Z,23.8
2018-04-22T02:56:00.198Z,23.8
2018-04-22T02:56:50.316Z,23.8
2018-04-22T02:57:40.631Z,23.8
2018-04-22T02:58:30.408Z,23.8
2018-04-22T02:59:21.004Z,23.8
2018-04-22T03:00:10.791Z,23.8
2018-04-22T03:01:00.286Z,23.8
2018-04-22T03:01:50.705Z,23.8
2018-04-22T03:02:40.435Z,23.8
2018-04-22T03:03:30.754Z,23.8
2018-04-22T03:04:21.121Z,23.8
2018-04-22T03:05:11.161Z,23.8
2018-04-22T03:06:00.722Z,23.8
2018-04-22T03:06:51.305Z,23.8
2018-04-22T03:07:40.325Z,23.9
2018-04-22T03:08:31.197Z,23.8
2018-04-22T03:09:21.015Z,23.8
2018-04-22T03:10:11.063Z,23.8
2018-04-22T03:11:00.776Z,23.8
2018-04-22T03:11:51.974Z,23.8
2018-04-22T03:12:42.042Z,23.8
2018-04-22T03:13:31.791Z,23.8
2018-04-22T03:14:21.856Z,23.8
2018-04-22T03:15:12.197Z,23.8
2018-04-22T03:16:02.009Z,23.8
2018-04-22T03:16:51.814Z,23.8
2018-04-22T03:17:42.425Z,23.8
2018-04-22T03:18:32.472Z,23.8
2018-04-22T03:19:22.520Z,23.8
2018-04-22T03:20:12.308Z,23.8
2018-04-22T03:21:01.815Z,23.8
2018-04-22T03:21:51.877Z,23.8
2018-04-22T03:22:41.688Z,23.8
2018-04-22T03:23:31.696Z,23.8
2018-04-22T03:24:22.907Z,23.8
2018-04-22T03:25:12.958Z,23.8
2018-04-22T03:26:02.179Z,23.8
2018-04-22T03:26:52.893Z,23.8
2018-04-22T03:27:42.314Z,23.8
2018-04-22T03:28:32.934Z,23.8
2018-04-22T03:29:22.756Z,23.8
2018-04-22T03:30:13.075Z,23.8
2018-04-22T03:31:03.430Z,23.8
2018-04-22T03:31:53.529Z,23.8
2018-04-22T03:32:43.283Z,23.8
2018-04-22T03:33:33.598Z,23.8
2018-04-22T03:34:22.819Z,23.8
2018-04-22T03:35:13.727Z,23.8
2018-04-22T03:36:03.799Z,23.8
2018-04-22T03:36:53.864Z,23.8
2018-04-22T03:37:43.632Z,23.8
2018-04-22T03:38:33.695Z,23.8
2018-04-22T03:39:24.067Z,23.8
2018-04-22T03:40:14.326Z,23.8
2018-04-22T03:41:04.183Z,23.8
2018-04-22T03:41:53.948Z,23.8
2018-04-22T03:42:43.742Z,23.8
2018-04-22T03:43:34.426Z,23.8
2018-04-22T03:44:24.405Z,23.8
2018-04-22T03:45:14.175Z,23.8
2018-04-22T03:46:04.287Z,23.8
2018-04-22T03:46:54.044Z,23.8
2018-04-22T03:47:43.253Z,23.8
2018-04-22T03:48:34.460Z,23.8
2018-04-22T03:49:24.773Z,23.8
2018-04-22T03:50:14.572Z,23.8
2018-04-22T03:51:04.620Z,23.8
2018-04-22T03:51:55.003Z,23.8
2018-04-22T03:52:44.778Z,23.8
2018-04-22T03:53:34.561Z,23.8
2018-04-22T03:54:25.225Z,23.8
2018-04-22T03:55:14.979Z,23.8
2018-04-22T03:56:05.330Z,23.8
2018-04-22T03:56:54.799Z,23.8
2018-04-22T03:57:45.411Z,23.8
2018-04-22T03:58:34.955Z,23.8
2018-04-22T03:59:24.718Z,23.8
2018-04-22T04:00:15.598Z,23.8
2018-04-22T04:01:05.654Z,23.8
2018-04-22T04:01:55.220Z,23.8
2018-04-22T04:02:44.977Z,23.8
2018-04-22T04:03:35.569Z,23.8
2018-04-22T04:04:25.982Z,23.8
2018-04-22T04:05:16.009Z,23.8
2018-04-22T04:06:05.805Z,23.8
2018-04-22T04:06:55.880Z,23.8
2018-04-22T04:07:45.901Z,23.8
2018-04-22T04:08:36.271Z,23.8
2018-04-22T04:09:25.752Z,23.8
2018-04-22T04:10:16.082Z,23.8
2018-04-22T04:11:06.442Z,23.8
2018-04-22T04:11:56.221Z,23.8
2018-04-22T04:12:46.568Z,23.8
2018-04-22T04:13:36.642Z,23.8
2018-04-22T04:14:26.710Z,23.8
2018-04-22T04:15:16.737Z,23.8
2018-04-22T04:16:06.532Z,23.8
2018-04-22T04:16:56.938Z,23.8
2018-04-22T04:17:46.424Z,23.8
2018-04-22T04:18:36.727Z,23.8
2018-04-22T04:19:27.197Z,23.8
2018-04-22T04:20:16.580Z,23.8
2018-04-22T04:21:07.186Z,23.8
2018-04-22T04:21:56.457Z,23.8
2018-04-22T04:22:47.322Z,23.8
2018-04-22T04:23:36.841Z,23.8
2018-04-22T04:24:27.432Z,23.8
2018-04-22T04:25:16.708Z,23.8
2018-04-22T04:26:07.331Z,23.8
2018-04-22T04:26:57.090Z,23.8
2018-04-22T04:27:47.777Z,23.8
2018-04-22T04:28:37.265Z,23.8
2018-04-22T04:29:27.296Z,23.8
2018-04-22T04:30:17.063Z,23.8
2018-04-22T04:31:07.989Z,23.8
2018-04-22T04:31:58.032Z,23.8
2018-04-22T04:32:48.071Z,23.8
2018-04-22T04:33:37.583Z,23.8
2018-04-22T04:34:28.241Z,23.8
2018-04-22T04:35:18.320Z,23.8
2018-04-22T04:36:08.499Z,23.8
2018-04-22T04:36:57.604Z,23.8
2018-04-22T04:37:47.909Z,23.8
2018-04-22T04:38:38.536Z,23.8
2018-04-22T04:39:28.336Z,23.8
2018-04-22T04:40:18.865Z,23.8
2018-04-22T04:41:08.189Z,23.8
2018-04-22T04:41:58.230Z,23.8
2018-04-22T04:42:48.834Z,23.8
2018-04-22T04:43:38.927Z,23.8
2018-04-22T04:44:28.699Z,23.8
2018-04-22T04:45:18.752Z,23.8
2018-04-22T04:46:08.232Z,23.8
2018-04-22T04:46:59.146Z,23.8
2018-04-22T04:47:49.207Z,23.8
2018-04-22T04:48:39.277Z,23.8
2018-04-22T04:49:29.139Z,23.8
2018-04-22T04:50:19.179Z,23.8
2018-04-22T04:51:09.503Z,23.8
2018-04-22T04:51:58.971Z,23.8
2018-04-22T04:52:49.084Z,23.8
2018-04-22T04:53:39.643Z,23.8
2018-04-22T04:54:29.698Z,23.8
2018-04-22T04:55:19.850Z,23.8
2018-04-22T04:56:09.893Z,23.8
2018-04-22T04:56:59.380Z,23.8
2018-04-22T04:57:49.682Z,23.8
2018-04-22T04:58:40.047Z,23.8
2018-04-22T04:59:30.124Z,23.8
2018-04-22T05:00:19.946Z,23.8
2018-04-22T05:01:09.970Z,23.7
2018-04-22T05:02:00.035Z,23.7
2018-04-22T05:02:50.113Z,23.6
2018-04-22T05:03:39.867Z,23.6
2018-04-22T05:04:29.950Z,23.6
2018-04-22T05:05:20.296Z,23.6
2018-04-22T05:06:10.410Z,23.6
2018-04-22T05:07:00.713Z,23.6
2018-04-22T05:07:50.174Z,23.6
2018-04-22T05:08:40.523Z,23.6
2018-04-22T05:09:30.856Z,23.6
2018-04-22T05:10:20.168Z,23.6
2018-04-22T05:11:11.056Z,23.6
2018-04-22T05:12:00.556Z,23.6
2018-04-22T05:12:50.561Z,23.6
2018-04-22T05:13:40.621Z,23.6
2018-04-22T05:14:30.988Z,23.6
2018-04-22T05:15:20.743Z,23.6
2018-04-22T05:16:10.790Z,23.6
2018-04-22T05:17:01.195Z,23.6
2018-04-22T05:17:51.239Z,23.6
2018-04-22T05:18:41.472Z,23.6
2018-04-22T05:19:31.666Z,23.5
2018-04-22T05:20:21.130Z,23.5
2018-04-22T05:21:10.949Z,23.5
2018-04-22T05:22:01.861Z,23.5
2018-04-22T05:22:51.332Z,23.4
2018-04-22T05:23:41.916Z,23.4
2018-04-22T05:24:31.452Z,23.4
2018-04-22T05:25:22.078Z,23.4
2018-04-22T05:26:11.586Z,23.4
2018-04-22T05:27:01.981Z,23.4
2018-04-22T05:27:51.976Z,23.4
2018-04-22T05:28:42.323Z,23.4
2018-04-22T05:29:32.373Z,23.4
2018-04-22T05:30:22.155Z,23.4
2018-04-22T05:31:12.584Z,23.4
2018-04-22T05:32:02.559Z,23.4
2018-04-22T05:32:52.647Z,23.4
2018-04-22T05:33:42.719Z,23.4
2018-04-22T05:34:32.772Z,23.4
2018-04-22T05:35:22.882Z,23.4
2018-04-22T05:36:12.616Z,23.4
2018-04-22T05:37:02.969Z,23.4
2018-04-22T05:37:53.022Z,23.4
2018-04-22T05:38:43.054Z,23.4
2018-04-22T05:39:32.847Z,23.4
2018-04-22T05:40:23.186Z,23.4
2018-04-22T05:41:13.019Z,23.4
2018-04-22T05:42:03.337Z,23.4
2018-04-22T05:42:53.389Z,29.1
2018-04-22T05:43:43.176Z,31.7
2018-04-22T05:44:32.956Z,34.8
2018-04-22T05:45:23.273Z,36.2
2018-04-22T05:46:13.396Z,34.8
2018-04-22T05:47:03.711Z,32.6
2018-04-22T05:47:53.796Z,31.2
2018-04-22T05:48:43.657Z,30.4
2018-04-22T05:49:33.921Z,29.9
2018-04-22T05:50:23.683Z,29.6
2018-04-22T05:51:13.208Z,29.3
2018-04-22T05:52:03.834Z,29
2018-04-22T05:52:53.893Z,28.8
2018-04-22T05:53:44.235Z,28.6
2018-04-22T05:54:34.281Z,28.4
2018-04-22T05:55:23.759Z,28.3
2018-04-22T05:56:14.422Z,28.2
2018-04-22T05:57:04.185Z,28.1
2018-04-22T05:57:53.987Z,28
2018-04-22T05:58:44.586Z,27.9
2018-04-22T06:00:24.176Z,31.7
2018-04-22T06:01:13.964Z,34.4
2018-04-22T06:02:04.289Z,36.9
2018-04-22T06:02:55.211Z,38.3
2018-04-22T06:03:44.692Z,38.2
2018-04-22T06:04:34.221Z,37.9
2018-04-22T06:05:24.834Z,37.9
2018-04-22T06:06:14.922Z,38.2
2018-04-22T06:07:04.123Z,38.5
2018-04-22T06:07:55.057Z,38.8
2018-04-22T06:08:44.976Z,39
2018-04-22T06:09:35.176Z,39.1
2018-04-22T06:10:24.917Z,39.1
2018-04-22T06:11:15.071Z,39.3
2018-04-22T06:12:05.391Z,39.4
2018-04-22T06:12:55.667Z,39.6
2018-04-22T06:13:45.161Z,39.8
2018-04-22T06:14:35.520Z,39.9
2018-04-22T06:15:25.901Z,40
2018-04-22T06:16:15.926Z,40.1
2018-04-22T06:17:05.748Z,40.3
2018-04-22T06:17:54.943Z,40.4
2018-04-22T06:18:45.836Z,40.6
2018-04-22T06:19:35.906Z,40.8
2018-04-22T06:20:26.265Z,40.9
2018-04-22T06:21:15.757Z,41.1
2018-04-22T06:22:05.649Z,41.2
2018-04-22T06:22:56.626Z,41.3
2018-04-22T06:23:46.187Z,41.4
2018-04-22T06:24:35.734Z,41.6
2018-04-22T06:25:26.360Z,41.8
2018-04-22T06:26:16.102Z,41.9
2018-04-22T06:27:06.472Z,42
2018-04-22T06:27:56.254Z,42.1
2018-04-22T06:28:46.276Z,42.3
2018-04-22T06:29:36.686Z,42.4
2018-04-22T06:30:26.999Z,42.6
2018-04-22T06:31:16.781Z,42.7
2018-04-22T06:32:06.887Z,42.8
2018-04-22T06:32:55.051Z,43
2018-04-22T06:33:46.430Z,43.1
2018-04-22T06:34:36.214Z,43.3
2018-04-22T06:35:27.094Z,43.4
2018-04-22T06:36:16.891Z,43.6
2018-04-22T06:37:07.252Z,43.7
2018-04-22T06:37:57.584Z,43.8
2018-04-22T06:38:47.637Z,43.9
2018-04-22T06:39:36.869Z,44.1
2018-04-22T06:40:27.764Z,44.2
2018-04-22T06:41:17.027Z,44.3
2018-04-22T06:42:07.081Z,44.4
2018-04-22T06:42:57.711Z,44.6
2018-04-22T06:43:47.263Z,44.5
2018-04-22T06:44:37.818Z,44.2
2018-04-22T06:45:27.884Z,43.9
2018-04-22T06:46:17.953Z,44.1
2018-04-22T06:47:07.988Z,44.3
2018-04-22T06:47:57.796Z,44.4
2018-04-22T06:48:48.152Z,44.6
2018-04-22T06:49:37.622Z,44.7
2018-04-22T06:50:28.537Z,44.8
2018-04-22T06:51:17.765Z,44.9
2018-04-22T06:52:08.097Z,45.1
2018-04-22T06:52:58.445Z,45.2
2018-04-22T06:53:48.220Z,45.4
2018-04-22T06:54:38.544Z,45.6
2018-04-22T06:55:28.662Z,45.7
2018-04-22T06:56:18.492Z,45.8
2018-04-22T06:57:09.057Z,45.9
2018-04-22T06:57:59.130Z,45.9
2018-04-22T06:58:48.993Z,45.4
2018-04-22T06:59:38.959Z,44.9
2018-04-22T07:00:29.301Z,44.8
2018-04-22T07:01:18.794Z,44.6
2018-04-22T07:02:08.574Z,44.4
2018-04-22T07:02:58.663Z,44.3
2018-04-22T07:03:48.991Z,44.3
2018-04-22T07:04:39.667Z,44.4
2018-04-22T07:05:29.250Z,44.5
2018-04-22T07:06:19.213Z,44.6
2018-04-22T07:07:09.255Z,44.8
2018-04-22T07:07:59.627Z,44.9
2018-04-22T07:08:49.942Z,45.1
2018-04-22T07:09:39.719Z,45.3
2018-04-22T07:10:29.225Z,45.5
2018-04-22T07:11:19.825Z,45.8
2018-04-22T07:12:09.937Z,45.9
2018-04-22T07:12:59.541Z,46.1
2018-04-22T07:13:49.208Z,46.3
2018-04-22T07:14:40.161Z,46.6
2018-04-22T07:15:30.498Z,46.8
2018-04-22T07:16:20.567Z,46.9
2018-04-22T07:17:10.059Z,47.2
2018-04-22T07:18:00.627Z,47.3
2018-04-22T07:18:50.160Z,47.6
2018-04-22T07:19:40.846Z,47.8
2018-04-22T07:20:30.883Z,47.9
2018-04-22T07:21:20.427Z,48.1
2018-04-22T07:22:10.717Z,48.3
2018-04-22T07:23:01.009Z,48.5
2018-04-22T07:23:51.099Z,48.6
2018-04-22T07:24:40.865Z,48.8
2018-04-22T07:25:30.922Z,49
2018-04-22T07:26:21.307Z,49.1
2018-04-22T07:27:10.511Z,49.3
2018-04-22T07:28:01.439Z,49.5
2018-04-22T07:28:51.190Z,49.7
2018-04-22T07:29:40.967Z,49.8
2018-04-22T07:30:31.078Z,50
2018-04-22T07:31:20.557Z,50.2
2018-04-22T07:32:10.508Z,50.3
2018-04-22T07:33:00.689Z,50.5
2018-04-22T07:33:50.753Z,50.7
2018-04-22T07:34:41.389Z,50.8
2018-04-22T07:35:29.982Z,50.8
2018-04-22T07:36:20.709Z,50.3
2018-04-22T07:37:11.269Z,50.3
2018-04-22T07:38:01.412Z,50.4
2018-04-22T07:38:51.437Z,50.7
2018-04-22T07:39:40.981Z,50.9
2018-04-22T07:40:31.557Z,51.1
2018-04-22T07:41:22.212Z,51.2
2018-04-22T07:42:11.971Z,51.3
2018-04-22T07:43:02.600Z,51.5
2018-04-22T07:43:51.526Z,51.6
2018-04-22T07:44:42.146Z,51.8
2018-04-22T07:45:32.783Z,52
2018-04-22T07:46:22.090Z,52.2
2018-04-22T07:48:02.418Z,52.6
2018-04-22T07:48:52.091Z,52.7
2018-04-22T07:49:42.540Z,52.9
2018-04-22T07:50:32.394Z,53.1
2018-04-22T07:51:22.400Z,53.3
2018-04-22T07:52:13.291Z,53.4
2018-04-22T07:53:02.776Z,53.6
2018-04-22T07:53:52.395Z,53.8
2018-04-22T07:54:42.992Z,53.9
2018-04-22T07:55:32.695Z,54.1
2018-04-22T07:56:22.440Z,54.3
2018-04-22T07:57:12.800Z,54.4
2018-04-22T07:58:03.458Z,54.6
2018-04-22T07:58:52.944Z,54.8
2018-04-22T07:59:43.026Z,54.9
2018-04-22T08:00:32.296Z,55.1
2018-04-22T08:01:23.147Z,55.3
2018-04-22T08:02:13.484Z,55.4
2018-04-22T08:03:03.839Z,55.6
2018-04-22T08:03:53.624Z,55.7
2018-04-22T08:04:44.222Z,55.4
2018-04-22T08:05:33.454Z,55.4
2018-04-22T08:06:24.069Z,55.4
2018-04-22T08:07:14.424Z,54.4
2018-04-22T08:08:04.227Z,54
2018-04-22T08:08:54.290Z,54.1
2018-04-22T08:09:44.341Z,54.3
2018-04-22T08:10:34.691Z,54.6
2018-04-22T08:11:24.474Z,54.7
2018-04-22T08:12:14.519Z,54.8
2018-04-22T08:13:04.889Z,55
2018-04-22T08:13:54.444Z,55.2
2018-04-22T08:14:44.741Z,55.4
2018-04-22T08:15:34.806Z,55.6
2018-04-22T08:16:24.646Z,55.8
2018-04-22T08:17:15.218Z,56.1
2018-04-22T08:18:04.992Z,56.3
2018-04-22T08:18:55.030Z,56.4
2018-04-22T08:19:44.383Z,56.6
2018-04-22T08:20:34.347Z,56.8
2018-04-22T08:21:25.532Z,57.1
2018-04-22T08:22:15.323Z,57.2
2018-04-22T08:23:04.809Z,57.4
2018-04-22T08:23:55.183Z,57.6
2018-04-22T08:24:45.764Z,57.8
2018-04-22T08:25:35.585Z,58
2018-04-22T08:26:25.359Z,58.1
2018-04-22T08:27:16.001Z,58.3
2018-04-22T08:28:05.487Z,58.4
2018-04-22T08:28:55.871Z,58.6
2018-04-22T08:29:46.172Z,58.8
2018-04-22T08:30:35.962Z,59
2018-04-22T08:31:25.813Z,59.1
2018-04-22T08:32:16.089Z,59.3
2018-04-22T08:33:05.605Z,59.4
2018-04-22T08:33:56.874Z,59.6
2018-04-22T08:34:46.262Z,59.8
2018-04-22T08:35:36.073Z,59.9
2018-04-22T08:36:26.193Z,60
2018-04-22T08:37:16.497Z,60.2
2018-04-22T08:38:06.838Z,60.3
2018-04-22T08:38:56.852Z,60.4
2018-04-22T08:39:46.443Z,60.6
2018-04-22T08:40:36.181Z,60.8
2018-04-22T08:41:26.337Z,60.9
2018-04-22T08:42:16.388Z,61
2018-04-22T08:43:06.833Z,61.1
2018-04-22T08:43:57.019Z,61.3
2018-04-22T08:44:47.347Z,61.4
2018-04-22T08:45:37.110Z,61.5
2018-04-22T08:46:27.250Z,61.6
2018-04-22T08:47:17.530Z,61.8
2018-04-22T08:48:07.635Z,61.9
2018-04-22T08:48:57.662Z,62.1
2018-04-22T08:49:47.439Z,62.2
2018-04-22T08:50:37.970Z,62.3
2018-04-22T08:51:27.576Z,62.4
2018-04-22T08:52:16.872Z,62.5
2018-04-22T08:53:07.968Z,62.6
2018-04-22T08:53:57.764Z,62.8
2018-04-22T08:54:47.569Z,62.9
2018-04-22T08:55:38.156Z,63
2018-04-22T08:56:27.984Z,63.1
2018-04-22T08:57:18.030Z,63.2
2018-04-22T08:58:08.433Z,63.3
2018-04-22T08:58:58.487Z,63.4
2018-04-22T08:59:48.204Z,63.5
2018-04-22T09:00:37.738Z,63.6
2018-04-22T09:01:28.339Z,63.6
2018-04-22T09:02:18.670Z,63.7
2018-04-22T09:03:08.756Z,63.8
2018-04-22T09:03:58.821Z,63.9
2018-04-22T09:04:48.334Z,64.1
2018-04-22T09:05:38.985Z,64.1
2018-04-22T09:06:29.013Z,64.2
2018-04-22T09:07:18.794Z,64.3
2018-04-22T09:08:09.148Z,64.4
2018-04-22T09:08:59.171Z,64.4
2018-04-22T09:09:49.313Z,64.6
2018-04-22T09:10:39.077Z,64.6
2018-04-22T09:11:29.398Z,64.7
2018-04-22T09:12:18.643Z,64.8
2018-04-22T09:13:08.996Z,64.8
2018-04-22T09:13:59.611Z,64.9
2018-04-22T09:14:49.123Z,65.1
2018-04-22T09:15:39.721Z,65.2
2018-04-22T09:16:29.908Z,65.2
2018-04-22T09:17:19.004Z,65.3
2018-04-22T09:18:09.959Z,65.4
2018-04-22T09:18:59.704Z,65.5
2018-04-22T09:19:50.046Z,65.6
2018-04-22T09:20:39.861Z,65.7
2018-04-22T09:21:29.371Z,65.8
2018-04-22T09:22:19.787Z,65.8
2018-04-22T09:23:09.768Z,65.9
2018-04-22T09:24:00.381Z,66
2018-04-22T09:24:50.159Z,66.1
2018-04-22T09:25:39.974Z,66.2
2018-04-22T09:26:30.326Z,66.3
2018-04-22T09:27:20.377Z,66.4
2018-04-22T09:28:10.436Z,66.4
2018-04-22T09:29:00.738Z,66.5
2018-04-22T09:29:50.266Z,66.6
2018-04-22T09:30:40.144Z,66.7
2018-04-22T09:31:30.396Z,66.8
2018-04-22T09:32:20.735Z,66.9
2018-04-22T09:33:11.443Z,67
2018-04-22T09:34:01.172Z,67.1
2018-04-22T09:34:51.197Z,67.2
2018-04-22T09:35:41.009Z,67.3
2018-04-22T09:36:31.085Z,67.3
2018-04-22T09:37:20.835Z,67.4
2018-04-22T09:38:11.482Z,67.5
2018-04-22T09:39:01.252Z,67.6
2018-04-22T09:39:51.376Z,67.6
2018-04-22T09:40:41.644Z,67.8
2018-04-22T09:41:31.763Z,67.8
2018-04-22T09:42:21.523Z,67.9
2018-04-22T09:43:12.194Z,68
2018-04-22T09:44:01.952Z,68.1
2018-04-22T09:44:51.973Z,68.1
2018-04-22T09:45:41.753Z,68.2
2018-04-22T09:46:32.091Z,68.3
2018-04-22T09:47:21.973Z,68.3
2018-04-22T09:48:12.303Z,68.4
2018-04-22T09:49:02.025Z,68.6
2018-04-22T09:49:52.698Z,68.6
2018-04-22T09:50:41.605Z,68.7
2018-04-22T09:51:32.557Z,68.8
2018-04-22T09:52:22.580Z,68.8
2018-04-22T09:53:12.103Z,68.9
2018-04-22T09:54:02.433Z,69
2018-04-22T09:54:52.518Z,69.1
2018-04-22T09:55:42.676Z,69.2
2018-04-22T09:56:32.349Z,69.3
2018-04-22T09:57:22.715Z,69.3
2018-04-22T09:58:13.023Z,69.4
2018-04-22T09:59:02.886Z,69.4
2018-04-22T09:59:53.202Z,69.5
2018-04-22T10:00:42.981Z,69.6
2018-04-22T10:01:32.736Z,69.7
2018-04-22T10:02:23.362Z,69.8
2018-04-22T10:03:13.395Z,69.8
2018-04-22T10:04:03.211Z,69.8
2018-04-22T10:04:53.582Z,69.9
2018-04-22T10:05:43.328Z,70
2018-04-22T10:06:33.742Z,70.1
2018-04-22T10:07:23.473Z,70.1
2018-04-22T10:08:13.854Z,70.3
2018-04-22T10:09:03.589Z,70.3
2018-04-22T10:09:53.957Z,70.4
2018-04-22T10:10:43.720Z,70.4
2018-04-22T10:11:33.818Z,70.5
2018-04-22T10:12:24.118Z,70.6
2018-04-22T10:13:13.911Z,70.7
2018-04-22T10:14:04.076Z,70.8
2018-04-22T10:14:53.804Z,70.9
2018-04-22T10:15:44.121Z,70.9
2018-04-22T10:16:34.294Z,71
2018-04-22T10:17:24.526Z,71.1
2018-04-22T10:18:14.064Z,70.9
2018-04-22T10:19:03.338Z,70.6
2018-04-22T10:19:53.718Z,70.5
2018-04-22T10:20:44.803Z,70.5
2018-04-22T10:21:34.859Z,70.6
2018-04-22T10:22:24.657Z,70.8
2018-04-22T10:23:14.712Z,70.8
2018-04-22T10:24:04.489Z,70.9
2018-04-22T10:24:54.831Z,71
2018-04-22T10:25:44.897Z,70.4
2018-04-22T10:26:35.274Z,70.3
2018-04-22T10:27:25.346Z,70.3
2018-04-22T10:28:15.095Z,70.4
2018-04-22T10:29:04.894Z,70.6
2018-04-22T10:29:55.518Z,70.7
2018-04-22T10:30:45.002Z,69.9
2018-04-22T10:31:35.088Z,69.2
2018-04-22T10:32:25.710Z,68.1
2018-04-22T10:33:15.754Z,67.8
2018-04-22T10:34:05.910Z,68
2018-04-22T10:34:55.089Z,68.3
2018-04-22T10:35:45.696Z,68.4
2018-04-22T10:36:36.228Z,68.6
2018-04-22T10:37:25.551Z,68.7
2018-04-22T10:38:16.154Z,68.9
2018-04-22T10:39:05.676Z,69
2018-04-22T10:39:56.286Z,69.3
2018-04-22T10:40:46.076Z,69.5
2018-04-22T10:41:36.173Z,69.6
2018-04-22T10:42:25.642Z,69.9
2018-04-22T10:43:16.279Z,70
2018-04-22T10:44:06.349Z,70.1
2018-04-22T10:44:56.434Z,70.3
2018-04-22T10:45:45.906Z,70.5
2018-04-22T10:46:36.860Z,70.6
2018-04-22T10:47:26.340Z,70.8
2018-04-22T10:48:16.953Z,70.9
2018-04-22T10:49:06.435Z,71.1
2018-04-22T10:49:56.551Z,71.2
2018-04-22T10:50:47.147Z,71.3
2018-04-22T10:51:37.194Z,71.1
2018-04-22T10:52:27.245Z,70.9
2018-04-22T10:53:17.317Z,71.1
2018-04-22T10:54:07.465Z,71.2
2018-04-22T10:54:57.193Z,70.9
2018-04-22T10:55:47.251Z,70.8
2018-04-22T10:56:37.073Z,70.8
2018-04-22T10:57:27.181Z,71
2018-04-22T10:58:17.163Z,71.1
2018-04-22T10:59:07.087Z,71.2
2018-04-22T10:59:58.262Z,71.3
2018-04-22T11:00:47.439Z,71.4
2018-04-22T11:01:37.410Z,71.5
2018-04-22T11:02:28.072Z,71.6
2018-04-22T11:03:17.838Z,71
2018-04-22T11:04:07.640Z,70.8
2018-04-22T11:04:57.808Z,70.9
2018-04-22T11:05:48.045Z,70.9
2018-04-22T11:06:38.385Z,70.2
2018-04-22T11:07:28.444Z,70
2018-04-22T11:08:18.228Z,70
2018-04-22T11:09:08.307Z,69.9
2018-04-22T11:09:58.337Z,70.1
2018-04-22T11:10:48.439Z,70.3